createdAt,value
2023-04-09T00:02:05.401Z,101061.41
2023-04-09T00:04:32.762Z,101063.72
2023-04-09T00:07:00.258Z,101059.41
2023-04-09T00:09:27.572Z,101062.03
2023-04-09T00:11:56.207Z,101064.34
2023-04-09T00:14:23.486Z,101052.97
2023-04-09T00:16:52.160Z,101054.25
2023-04-09T00:22:17.842Z,101051.41
2023-04-09T00:24:45.194Z,101050.34
2023-04-09T00:27:14.034Z,101047.50
2023-04-09T00:29:41.489Z,101051.81
2023-04-09T00:32:10.296Z,101047.25
2023-04-09T00:34:38.935Z,101048.06
2023-04-09T00:37:06.437Z,101044.81
2023-04-09T00:39:33.765Z,101042.84
2023-04-09T00:42:02.655Z,101036.75
2023-04-09T00:44:30.801Z,101031.41
2023-04-09T00:46:58.085Z,101031.06
2023-04-09T00:52:15.504Z,101027.66
2023-04-09T00:54:42.809Z,101035.78
2023-04-09T00:57:11.186Z,101036.22
2023-04-09T00:59:38.574Z,101036.53
2023-04-09T01:02:06.412Z,101031.13
2023-04-09T01:04:33.792Z,101030.13
2023-04-09T01:07:03.350Z,101029.38
2023-04-09T01:09:34.160Z,101027.56
2023-04-09T01:12:03.768Z,101029.97
2023-04-09T01:14:33.541Z,101032.72
2023-04-09T01:17:05.222Z,101028.50
2023-04-09T01:19:38.655Z,101036.19
2023-04-09T01:22:06.438Z,101032.81
2023-04-09T01:24:38.060Z,101031.13
2023-04-09T01:30:05.519Z,101035.16
2023-04-09T01:32:33.579Z,101032.81
2023-04-09T01:35:01.034Z,101020.84
2023-04-09T01:37:28.384Z,101023.38
2023-04-09T01:42:53.803Z,101027.94
2023-04-09T01:45:22.578Z,101025.22
2023-04-09T01:47:50.067Z,101030.44
2023-04-09T01:50:17.590Z,101025.19
2023-04-09T01:55:34.058Z,101025.66
2023-04-09T01:58:01.367Z,101025.22
2023-04-09T02:00:32.025Z,101025.22
2023-04-09T02:03:00.557Z,101026.41
2023-04-09T02:05:28.683Z,101027.34
2023-04-09T02:07:56.870Z,101026.41
2023-04-09T02:10:24.689Z,101021.47
2023-04-09T02:12:52.388Z,101022.97
2023-04-09T02:15:20.208Z,101023.25
2023-04-09T02:20:47.074Z,101015.44
2023-04-09T02:23:14.363Z,101022.41
2023-04-09T02:28:30.765Z,101020.88
2023-04-09T02:30:58.062Z,101019.31
2023-04-09T02:33:26.726Z,101008.25
2023-04-09T02:35:54.791Z,101015.94
2023-04-09T02:38:22.196Z,101020.91
2023-04-09T02:40:49.554Z,101013.66
2023-04-09T02:46:05.891Z,101017.25
2023-04-09T02:48:35.981Z,101017.31
2023-04-09T02:51:05.784Z,101024.06
2023-04-09T02:56:21.769Z,101011.06
2023-04-09T02:58:53.796Z,101011.63
2023-04-09T03:01:21.344Z,101007.47
2023-04-09T03:03:50.287Z,101013.25
2023-04-09T03:09:16.774Z,101009.38
2023-04-09T03:11:44.137Z,101010.88
2023-04-09T03:14:11.458Z,101003.38
2023-04-09T03:16:38.755Z,101001.38
2023-04-09T03:19:07.394Z,100998.44
2023-04-09T03:21:37.559Z,100992.38
2023-04-09T03:24:06.234Z,101000.72
2023-04-09T03:26:36.263Z,100990.22
2023-04-09T03:29:06.131Z,100996.59
2023-04-09T03:31:33.803Z,100992.81
2023-04-09T03:34:01.142Z,100998.47
2023-04-09T03:36:31.500Z,100989.03
2023-04-09T03:39:10.464Z,100991.19
2023-04-09T03:41:42.230Z,100987.44
2023-04-09T03:44:13.778Z,100984.16
2023-04-09T03:47:19.037Z,100981.00
2023-04-09T03:49:46.425Z,100982.50
2023-04-09T03:52:22.876Z,100983.81
2023-04-09T03:54:58.774Z,100982.75
2023-04-09T03:57:27.198Z,100982.59
2023-04-09T03:59:55.766Z,100984.28
2023-04-09T04:02:26.686Z,100980.91
2023-04-09T04:05:01.705Z,100983.63
2023-04-09T04:07:35.277Z,100987.53
2023-04-09T04:10:09.168Z,100989.31
2023-04-09T04:12:36.513Z,100990.13
2023-04-09T04:15:08.418Z,100986.34
2023-04-09T04:17:44.722Z,100985.59
2023-04-09T04:20:21.005Z,100983.28
2023-04-09T04:23:07.131Z,100971.44
2023-04-09T04:28:35.778Z,100984.31
2023-04-09T04:34:02.794Z,100984.47
2023-04-09T04:36:30.698Z,100985.75
2023-04-09T04:38:59.361Z,100994.91
2023-04-09T04:41:32.116Z,100987.22
2023-04-09T04:44:22.360Z,100996.47
2023-04-09T04:46:55.252Z,100989.88
2023-04-09T04:49:22.693Z,100999.66
2023-04-09T04:51:49.997Z,101001.03
2023-04-09T04:54:19.142Z,101000.34
2023-04-09T04:56:52.584Z,100998.81
2023-04-09T04:59:38.514Z,101004.88
2023-04-09T05:02:07.003Z,101010.44
2023-04-09T05:04:44.238Z,101010.25
2023-04-09T05:07:14.592Z,101005.88
2023-04-09T05:09:50.515Z,101003.88
2023-04-09T05:12:18.034Z,100997.44
2023-04-09T05:14:49.202Z,101002.38
2023-04-09T05:17:16.821Z,101000.59
2023-04-09T05:19:46.190Z,101006.06
2023-04-09T05:22:13.705Z,101005.34
2023-04-09T05:24:41.045Z,100999.25
2023-04-09T05:27:10.235Z,101009.34
2023-04-09T05:29:37.525Z,101003.19
2023-04-09T05:34:56.764Z,101001.13
2023-04-09T05:37:25.594Z,101007.88
2023-04-09T05:39:53.992Z,101012.53
2023-04-09T05:42:22.646Z,101006.38
2023-04-09T05:45:13.129Z,101013.34
2023-04-09T05:47:48.060Z,101006.41
2023-04-09T05:50:19.722Z,101006.91
2023-04-09T05:52:49.104Z,101007.06
2023-04-09T05:55:17.046Z,101002.75
2023-04-09T05:57:50.011Z,101002.97
2023-04-09T06:00:18.245Z,101005.88
2023-04-09T06:02:46.926Z,101002.81
2023-04-09T06:08:13.985Z,101005.25
2023-04-09T06:10:41.532Z,101006.22
2023-04-09T06:13:10.397Z,101009.97
2023-04-09T06:15:38.506Z,101008.19
2023-04-09T06:21:05.162Z,101021.41
2023-04-09T06:23:32.869Z,101033.63
2023-04-09T06:26:00.270Z,101029.66
2023-04-09T06:28:28.871Z,101022.63
2023-04-09T06:30:56.491Z,101024.22
2023-04-09T06:33:24.264Z,101029.13
2023-04-09T06:35:51.701Z,101022.41
2023-04-09T06:38:19.018Z,101028.69
2023-04-09T06:40:46.309Z,101026.63
2023-04-09T06:43:13.623Z,101030.50
2023-04-09T06:45:54.390Z,101031.25
2023-04-09T06:48:21.710Z,101030.94
2023-04-09T06:53:48.004Z,101029.94
2023-04-09T06:56:15.582Z,101036.13
2023-04-09T06:58:42.905Z,101027.88
2023-04-09T07:01:13.100Z,101024.97
2023-04-09T07:03:40.706Z,101028.22
2023-04-09T07:09:06.750Z,101030.69
2023-04-09T07:11:34.058Z,101026.59
2023-04-09T07:19:31.190Z,101032.00
2023-04-09T07:21:58.479Z,101040.66
2023-04-09T07:24:25.826Z,101032.28
2023-04-09T07:26:53.365Z,101038.28
2023-04-09T07:29:22.218Z,101036.63
2023-04-09T07:31:49.731Z,101037.94
2023-04-09T07:34:17.062Z,101039.09
2023-04-09T07:36:45.748Z,101048.59
2023-04-09T07:39:13.059Z,101043.22
2023-04-09T07:56:44.048Z,101047.28
2023-04-09T07:59:11.818Z,101047.59
2023-04-09T08:01:39.281Z,101051.13
2023-04-09T08:04:07.533Z,101049.59
2023-04-09T08:06:35.971Z,101051.72
2023-04-09T08:09:03.586Z,101053.53
2023-04-09T08:11:31.114Z,101055.25
2023-04-09T08:14:02.002Z,101046.34
2023-04-09T08:19:19.977Z,101041.47
2023-04-09T08:21:48.733Z,101045.66
2023-04-09T08:24:16.711Z,101040.38
2023-04-09T08:26:44.377Z,101045.41
2023-04-09T08:29:13.930Z,101041.56
2023-04-09T08:31:41.793Z,101045.16
2023-04-09T08:34:09.460Z,101052.44
2023-04-09T08:36:37.076Z,101048.50
2023-04-09T08:39:04.728Z,101046.38
2023-04-09T08:41:32.342Z,101039.41
2023-04-09T08:44:00.695Z,101039.03
2023-04-09T08:49:24.261Z,101043.91
2023-04-09T08:51:51.708Z,101038.06
2023-04-09T08:54:20.071Z,101037.91
2023-04-09T08:56:47.803Z,101039.97
2023-04-09T08:59:17.954Z,101032.88
2023-04-09T09:01:46.631Z,101040.19
2023-04-09T09:04:14.185Z,101035.00
2023-04-09T09:06:43.022Z,101036.56
2023-04-09T09:09:12.003Z,101033.66
2023-04-09T09:11:40.789Z,101029.78
2023-04-09T09:14:10.108Z,101027.56
2023-04-09T09:16:42.715Z,101027.44
2023-04-09T09:19:10.472Z,101023.69
2023-04-09T09:21:38.566Z,101032.06
2023-04-09T09:24:17.592Z,101024.81
2023-04-09T09:26:45.200Z,101022.75
2023-04-09T09:29:12.669Z,101016.22
2023-04-09T09:31:47.261Z,101014.13
2023-04-09T09:34:15.868Z,100996.59
2023-04-09T09:36:43.570Z,101004.69
2023-04-09T09:39:13.267Z,101009.59
2023-04-09T09:41:41.614Z,101007.38
2023-04-09T09:44:10.308Z,101000.28
2023-04-09T09:47:03.960Z,100994.56
2023-04-09T09:49:31.556Z,100997.66
2023-04-09T09:52:02.661Z,100995.75
2023-04-09T09:57:40.314Z,100991.44
2023-04-09T10:00:09.341Z,100996.31
2023-04-09T10:02:41.881Z,100995.78
2023-04-09T10:05:09.930Z,100989.34
2023-04-09T10:07:38.455Z,100991.03
2023-04-09T10:10:08.980Z,100996.75
2023-04-09T10:12:36.433Z,100981.53
2023-04-09T10:18:05.075Z,100986.19
2023-04-09T10:23:34.012Z,100976.66
2023-04-09T10:26:03.044Z,100977.94
2023-04-09T10:28:31.006Z,100978.50
2023-04-09T10:30:58.752Z,100964.94
2023-04-09T10:36:27.714Z,100971.94
2023-04-09T10:38:55.187Z,100969.00
2023-04-09T10:41:28.446Z,100972.19
2023-04-09T10:43:55.875Z,100971.91
2023-04-09T10:46:27.515Z,100964.38
2023-04-09T10:49:11.678Z,100962.25
2023-04-09T10:51:39.432Z,100957.69
2023-04-09T10:54:07.064Z,100961.69
2023-04-09T11:01:54.708Z,100916.97
2023-04-09T11:05:29.117Z,100920.13
2023-04-09T11:10:36.755Z,100907.59
2023-04-09T11:18:18.115Z,100912.63
2023-04-09T11:24:19.679Z,100911.41
2023-04-09T11:31:40.370Z,100911.91
2023-04-09T11:34:11.115Z,100914.56
2023-04-09T11:36:38.822Z,100902.97
2023-04-09T11:39:06.376Z,100913.16
2023-04-09T11:41:34.718Z,100909.41
2023-04-09T11:44:03.790Z,100908.88
2023-04-09T11:46:31.481Z,100906.09
2023-04-09T11:49:00.394Z,100910.25
2023-04-09T11:51:28.564Z,100907.53
2023-04-09T11:53:56.029Z,100901.19
2023-04-09T11:56:23.706Z,100912.09
2023-04-09T11:58:51.404Z,100891.28
2023-04-09T12:01:19.092Z,100893.13
2023-04-09T12:06:46.330Z,100919.94
2023-04-09T12:09:14.198Z,100910.97
2023-04-09T12:11:44.925Z,100908.88
2023-04-09T12:14:13.833Z,100920.06
2023-04-09T12:16:43.774Z,100912.00
2023-04-09T12:22:15.336Z,100922.41
2023-04-09T12:24:42.818Z,100924.72
2023-04-09T12:27:10.876Z,100926.03
2023-04-09T12:29:38.310Z,100918.91
2023-04-09T12:32:06.331Z,100925.56
2023-04-09T12:34:33.809Z,100922.06
2023-04-09T12:37:01.483Z,100929.94
2023-04-09T12:39:31.699Z,100929.38
2023-04-09T12:42:01.069Z,100923.09
2023-04-09T12:44:28.818Z,100919.22
2023-04-09T12:46:56.265Z,100911.53
2023-04-09T12:49:47.667Z,100917.25
2023-04-09T12:52:15.497Z,100913.34
2023-04-09T12:54:44.845Z,100917.75
2023-04-09T12:57:12.268Z,100917.84
2023-04-09T12:59:39.672Z,100911.09
2023-04-09T13:02:07.715Z,100906.31
2023-04-09T13:04:35.672Z,100899.69
2023-04-09T13:07:03.266Z,100908.59
2023-04-09T13:09:30.738Z,100896.88
2023-04-09T13:11:59.492Z,100903.72
2023-04-09T13:14:26.905Z,100891.09
2023-04-09T13:16:54.457Z,100890.81
2023-04-09T13:19:22.457Z,100895.38
2023-04-09T13:21:49.851Z,100892.88
2023-04-09T13:24:17.318Z,100893.28
2023-04-09T13:30:25.665Z,100880.16
2023-04-09T13:32:53.269Z,100871.34
2023-04-09T13:36:39.103Z,100872.31
2023-04-09T13:39:31.767Z,100877.59
2023-04-09T13:42:49.860Z,100882.66
2023-04-09T13:45:42.770Z,100876.47
2023-04-09T13:48:35.839Z,100861.75
2023-04-09T13:51:29.546Z,100865.25
2023-04-09T13:54:23.318Z,100868.13
2023-04-09T13:57:18.861Z,100861.16
2023-04-09T14:00:12.611Z,100864.50
2023-04-09T14:03:06.002Z,100861.19
2023-04-09T14:05:58.595Z,100856.13
2023-04-09T14:08:52.270Z,100853.25
2023-04-09T14:11:46.146Z,100852.56
2023-04-09T14:14:38.581Z,100846.41
2023-04-09T14:17:31.850Z,100852.09
2023-04-09T14:20:24.538Z,100848.94
2023-04-09T14:23:27.090Z,100852.50
2023-04-09T14:26:21.650Z,100855.97
2023-04-09T14:29:18.077Z,100851.44
2023-04-09T14:32:10.745Z,100842.88
2023-04-09T14:35:03.677Z,100840.03
2023-04-09T14:37:56.713Z,100846.53
2023-04-09T14:44:20.185Z,100835.59
2023-04-09T14:47:12.499Z,100843.25
2023-04-09T14:50:04.980Z,100839.69
2023-04-09T14:52:57.547Z,100833.56
2023-04-09T14:55:50.975Z,100837.66
2023-04-09T14:58:43.669Z,100833.22
2023-04-09T15:01:38.207Z,100822.19
2023-04-09T15:04:30.631Z,100820.19
2023-04-09T15:07:25.166Z,100825.00
2023-04-09T15:10:18.063Z,100823.09
2023-04-09T15:13:10.787Z,100811.56
2023-04-09T15:16:03.735Z,100815.69
2023-04-09T15:18:59.844Z,100816.09
2023-04-09T15:21:52.890Z,100820.28
2023-04-09T15:24:45.547Z,100816.72
2023-04-09T15:30:51.013Z,100815.50
2023-04-09T15:36:58.089Z,100809.97
2023-04-09T15:39:52.311Z,100809.97
2023-04-09T15:42:39.050Z,100810.84
2023-04-09T15:45:31.843Z,100820.50
2023-04-09T15:48:24.870Z,100821.91
2023-04-09T15:54:38.033Z,100829.50
2023-04-09T15:57:30.679Z,100819.50
2023-04-09T16:00:24.110Z,100821.44
2023-04-09T16:03:16.732Z,100817.28
2023-04-09T16:06:13.034Z,100810.72
2023-04-09T16:12:19.322Z,100805.34
2023-04-09T16:15:11.871Z,100813.47
2023-04-09T16:18:11.569Z,100816.22
2023-04-09T16:21:05.687Z,100812.44
2023-04-09T16:24:15.916Z,100810.25
2023-04-09T16:27:05.743Z,100805.88
2023-04-09T16:33:20.997Z,100801.78
2023-04-09T16:39:38.798Z,100808.34
2023-04-09T16:42:32.678Z,100805.59
2023-04-09T16:45:25.518Z,100808.16
2023-04-09T16:48:18.039Z,100810.66
2023-04-09T16:51:11.854Z,100813.94
2023-04-09T16:54:04.523Z,100809.34
2023-04-09T16:56:57.137Z,100806.66
2023-04-09T16:59:49.601Z,100796.31
2023-04-09T17:02:42.712Z,100798.94
2023-04-09T17:05:36.024Z,100797.75
2023-04-09T17:11:38.323Z,100802.84
2023-04-09T17:14:31.573Z,100803.59
2023-04-09T17:17:24.775Z,100808.13
2023-04-09T17:20:17.873Z,100811.41
2023-04-09T17:23:26.018Z,100806.78
2023-04-09T17:26:19.286Z,100804.31
2023-04-09T17:29:11.561Z,100804.41
2023-04-09T17:32:04.744Z,100804.28
2023-04-09T17:35:07.401Z,100805.66
2023-04-09T17:37:59.706Z,100801.16
2023-04-09T17:40:54.098Z,100799.72
2023-04-09T17:43:47.778Z,100804.75
2023-04-09T17:46:40.788Z,100799.63
2023-04-09T17:49:34.024Z,100792.53
2023-04-09T17:52:26.613Z,100801.31
2023-04-09T17:55:19.908Z,100790.50
2023-04-09T18:01:35.065Z,100782.69
2023-04-09T18:04:28.024Z,100786.59
2023-04-09T18:07:21.434Z,100778.28
2023-04-09T18:10:13.654Z,100782.25
2023-04-09T18:13:06.969Z,100787.56
2023-04-09T18:15:59.708Z,100787.16
2023-04-09T18:18:47.794Z,100792.19
2023-04-09T18:21:40.959Z,100789.50
2023-04-09T18:24:34.432Z,100799.78
2023-04-09T18:27:26.781Z,100794.59
2023-04-09T18:30:19.437Z,100787.34
2023-04-09T18:33:15.657Z,100787.03
2023-04-09T18:36:10.200Z,100789.03
2023-04-09T18:42:51.610Z,100793.38
2023-04-09T18:45:56.088Z,100790.09
2023-04-09T18:48:48.806Z,100804.78
2023-04-09T18:55:04.557Z,100808.78
2023-04-09T19:01:43.670Z,100809.22
2023-04-09T19:04:39.819Z,100809.97
2023-04-09T19:07:33.588Z,100805.91
2023-04-09T19:10:28.111Z,100821.06
2023-04-09T19:13:20.702Z,100810.41
2023-04-09T19:16:22.459Z,100818.81
2023-04-09T19:19:14.583Z,100817.38
2023-04-09T19:22:07.846Z,100821.47
2023-04-09T19:25:00.643Z,100821.22
2023-04-09T19:27:56.428Z,100827.59
2023-04-09T19:30:50.622Z,100829.75
2023-04-09T19:36:56.319Z,100827.41
2023-04-09T19:43:06.340Z,100830.19
2023-04-09T19:49:15.633Z,100829.94
2023-04-09T19:52:09.190Z,100833.53
2023-04-09T19:54:57.698Z,100835.31
2023-04-09T19:57:50.646Z,100831.81
2023-04-09T20:00:45.049Z,100835.91
2023-04-09T20:03:37.747Z,100834.84
2023-04-09T20:06:30.704Z,100831.69
2023-04-09T20:09:26.275Z,100826.31
2023-04-09T20:12:55.926Z,100818.28
2023-04-09T20:15:52.633Z,100816.25
2023-04-09T20:19:01.216Z,100820.34
2023-04-09T20:21:52.722Z,100821.19
2023-04-09T20:28:09.698Z,100817.78
2023-04-09T20:34:29.182Z,100811.44
2023-04-09T20:40:47.008Z,100811.25
2023-04-09T20:46:48.498Z,100809.75
2023-04-09T20:52:59.315Z,100806.38
2023-04-09T20:59:04.037Z,100793.91
2023-04-09T21:05:22.411Z,100796.31
2023-04-09T21:08:16.923Z,100798.81
2023-04-09T21:11:09.980Z,100787.34
2023-04-09T21:14:06.978Z,100790.28
2023-04-09T21:16:59.732Z,100782.34
2023-04-09T21:19:53.451Z,100779.09
2023-04-09T21:22:46.098Z,100772.69
2023-04-09T21:25:40.814Z,100780.16
2023-04-09T21:28:33.374Z,100779.22
2023-04-09T21:31:25.903Z,100787.78
2023-04-09T21:34:18.453Z,100786.91
2023-04-09T21:37:11.159Z,100790.91
2023-04-09T21:43:17.376Z,100793.72
2023-04-09T21:46:09.785Z,100793.66
2023-04-09T21:52:32.194Z,100788.88
2023-04-09T21:55:42.109Z,100784.25
2023-04-09T21:58:32.906Z,100776.97
2023-04-09T22:05:12.083Z,100764.69
2023-04-09T22:08:04.378Z,100761.09
2023-04-09T22:10:56.826Z,100762.69
2023-04-09T22:13:51.437Z,100769.72
2023-04-09T22:16:47.516Z,100737.28
2023-04-09T22:19:39.457Z,100763.81
2023-04-09T22:26:00.003Z,100757.84
2023-04-09T22:28:54.119Z,100754.94
2023-04-09T22:31:46.735Z,100749.69
2023-04-09T22:34:44.822Z,100755.78
2023-04-09T22:37:37.590Z,100751.53
2023-04-09T22:44:01.135Z,100764.28
2023-04-09T22:46:53.853Z,100767.59
2023-04-09T22:49:46.815Z,100759.13
2023-04-09T22:52:39.833Z,100767.91
2023-04-09T22:55:32.454Z,100770.00
2023-04-09T22:58:24.572Z,100766.56
2023-04-09T23:01:54.028Z,100775.19
2023-04-09T23:04:47.941Z,100774.16
2023-04-09T23:07:42.620Z,100768.38
2023-04-09T23:14:11.502Z,100772.41
2023-04-09T23:17:03.600Z,100768.91
2023-04-09T23:19:58.260Z,100766.28
2023-04-09T23:22:51.099Z,100765.56
2023-04-09T23:25:46.207Z,100757.91
2023-04-09T23:28:38.847Z,100756.97
2023-04-09T23:31:31.956Z,100753.91
2023-04-09T23:34:24.689Z,100750.53
2023-04-09T23:37:12.153Z,100752.81
2023-04-09T23:40:15.147Z,100753.88
2023-04-09T23:43:02.093Z,100756.09
2023-04-09T23:48:59.006Z,100754.59
2023-04-09T23:55:00.402Z,100758.19
